Aérodrome :
LOGIN :

S'inscrire | Disclaimer

   EN    FR    IT 

 










Légende :    VFR   VFR Marginal   IFR   IFR Intensif   IFR Très Intensif
Visi : 
Plafond : 
>= 8 km
>= 3000ft
5 à 8 km
1000 à 3000 ft
1500m à 5 km
500 à 1000 ft
800 à 1500m
200 à 500 ft
< 800m
< 200 ft
Symboles :   Orages  Brouillard  Fortes neiges  Fortes précipitations  Vent > 20 kt
SIGMETs :   Divers  Orages  Givrage  Turbulence  Onde Orograph.  Cendres Volcan.






- Altitude de l'aérodrome : 2031 ft


LEGT - Madrid Getafe

DERNIER METAR :
  • 081200Z 25002KT 9999 BKN024 FEW030TCU 11/06 Q1015

METARs EXPIRÉS :
  • 081130Z 00000KT 9999 FEW016 BKN022 10/06 Q1015
  • 081100Z 00000KT 9999 FEW020 BKN045 10/06 Q1015
  • 081030Z VRB02KT 9999 FEW020 SCT044 10/06 Q1015
  • 081000Z VRB02KT 9999 FEW020 BKN030 09/07 Q1015
  • 080930Z 17002KT 9999 FEW025 BKN032 09/07 Q1015
  • 080900Z 00000KT 9999 FEW020 BKN030 09/06 Q1015

TAF TAF LEGT
Valide du 08 à 12h jusqu'au 09 à 12h UTC


081100Z 0812/0912 VRB04KT 9999 FEW025 BKN030 TX13/0815Z TN05/0906Z
PROB40
TEMPO 0812/0820 03010KT 3000 SHRA SCT025TCU
PROB30
TEMPO 0813/0819 VRB15G25KT 3000 TSRA SHRA SCT025CB
BECMG 0818/0819 03010KT



MET'MAP, la Météo Aéronautique d'un coup d'oeil ! - Copyright ORBIFLY Décembre 2007 - Disclaimer

ORBIFLY MET'MAP TEAM :

Programmation & Développement : Alexandra Zaïnal
Sur une idée originale de : Baudouin d'Aumeries
Assistance à la programmation : Marc-Olivier Méhu
Soutien technique & logistique : Manuel Goepfert

Contact : metmap@orbifly.com




SOURCES & CREDITS :

   NOAA